Time;durP1;ratioP1;P1;durP2;ratioP2;P2;SDS_P1;SDS_P2;PMS_P1;PMS_P2;Temp;Humidity;BMP_temperature;BMP_pressure;BME280_temperature;BME280_humidity;BME280_pressure;Samples;Min_cycle;Max_cycle;Signal;HPM_P1;HPM_P2
2022/09/14 00:01:11;;;;;;;5.43;1.40;;;15.60;99.90;;;;;;5090632;28;20073;-85
2022/09/14 00:03:37;;;;;;;3.30;1.17;;;15.50;99.90;;;;;;5089946;28;20485;-84
2022/09/14 00:06:05;;;;;;;2.47;1.00;;;15.40;99.90;;;;;;5090247;28;20024;-83
2022/09/14 00:08:32;;;;;;;1.65;0.98;;;15.40;99.90;;;;;;5089163;28;20035;-82
2022/09/14 00:10:57;;;;;;;4.70;1.35;;;15.30;99.90;;;;;;5089833;28;20019;-83
2022/09/14 00:13:23;;;;;;;;;;;15.20;99.90;;;;;;5089764;28;20209;-83
2022/09/14 00:15:50;;;;;;;2.65;1.10;;;15.10;99.90;;;;;;5093200;28;19990;-83
2022/09/14 00:18:17;;;;;;;2.30;1.20;;;15.10;99.90;;;;;;5109601;28;20507;-83
2022/09/14 00:20:43;;;;;;;3.78;1.05;;;15.00;99.90;;;;;;5107604;28;20028;-84
2022/09/14 00:23:08;;;;;;;;;;;15.00;99.90;;;;;;5090136;28;20032;-83
2022/09/14 00:25:34;;;;;;;1.98;1.40;;;14.90;99.90;;;;;;5089408;28;20276;-84
2022/09/14 00:27:59;;;;;;;;;;;14.90;99.90;;;;;;5095348;28;20085;-84
2022/09/14 00:30:25;;;;;;;5.60;1.33;;;14.80;99.90;;;;;;5109873;28;19968;-84
2022/09/14 00:32:51;;;;;;;2.17;0.88;;;14.70;99.90;;;;;;5108468;28;20106;-86
2022/09/14 00:35:16;;;;;;;;;;;14.70;99.90;;;;;;5112281;28;20391;-85
2022/09/14 00:37:42;;;;;;;1.40;0.77;;;14.70;99.90;;;;;;5090823;28;19911;-85
2022/09/14 00:40:09;;;;;;;4.97;1.73;;;14.60;99.90;;;;;;5091536;28;20027;-85
2022/09/14 00:42:36;;;;;;;3.83;0.98;;;14.70;99.90;;;;;;5089960;28;20082;-84
2022/09/14 00:45:23;;;;;;;1.95;1.13;;;14.60;99.90;;;;;;5104955;28;20106;-84
2022/09/14 00:47:52;;;;;;;3.53;1.13;;;14.70;99.90;;;;;;5110558;28;20023;-84
2022/09/14 00:50:18;;;;;;;3.53;0.77;;;14.60;99.90;;;;;;5110983;28;20028;-84
2022/09/14 00:52:47;;;;;;;1.38;0.77;;;14.60;99.90;;;;;;5110188;28;20020;-85
2022/09/14 00:55:16;;;;;;;1.98;1.10;;;14.60;99.90;;;;;;5109960;28;20023;-83
2022/09/14 00:57:46;;;;;;;2.03;0.98;;;14.60;99.90;;;;;;5109421;28;20040;-84
2022/09/14 01:00:15;;;;;;;8.18;1.40;;;14.50;99.90;;;;;;5104837;28;20484;-84
2022/09/14 01:02:41;;;;;;;3.28;1.20;;;14.50;99.90;;;;;;5090747;28;20548;-84
2022/09/14 01:05:07;;;;;;;;;;;14.50;99.90;;;;;;5091252;28;20024;-84
2022/09/14 01:07:45;;;;;;;1.98;1.25;;;14.40;99.90;;;;;;5089506;28;19904;-85
2022/09/14 01:10:19;;;;;;;2.83;1.20;;;14.30;99.90;;;;;;5089141;28;20182;-83
2022/09/14 01:13:12;;;;;;;2.85;1.15;;;14.30;99.90;;;;;;5090704;28;20073;-84
2022/09/14 01:15:54;;;;;;;4.15;1.30;;;14.30;99.90;;;;;;5089887;28;20023;-85
2022/09/14 01:18:46;;;;;;;1.80;1.30;;;14.20;99.90;;;;;;5089550;28;20032;-85
2022/09/14 01:21:27;;;;;;;2.75;1.08;;;14.20;99.90;;;;;;5093196;28;20028;-85
2022/09/14 01:24:19;;;;;;;2.20;1.42;;;14.20;99.90;;;;;;5109040;28;20035;-85
2022/09/14 01:27:00;;;;;;;1.95;1.02;;;14.20;99.90;;;;;;5108432;28;20043;-85
2022/09/14 01:29:38;;;;;;;2.70;1.27;;;14.20;99.90;;;;;;5107604;28;20024;-85
2022/09/14 01:32:10;;;;;;;2.05;1.08;;;14.20;99.90;;;;;;5108497;28;20038;-85
2022/09/14 01:34:47;;;;;;;2.72;1.52;;;14.20;99.90;;;;;;5109388;28;20099;-83
2022/09/14 01:37:20;;;;;;;2.42;1.13;;;14.20;99.90;;;;;;5109012;28;20035;-84
2022/09/14 01:39:52;;;;;;;2.83;1.02;;;14.10;99.90;;;;;;5109787;28;20035;-84
2022/09/14 01:42:22;;;;;;;1.67;1.00;;;14.20;99.90;;;;;;5108523;28;20047;-84
2022/09/14 01:44:54;;;;;;;5.47;1.00;;;14.10;99.90;;;;;;5108440;28;20555;-84
2022/09/14 01:47:40;;;;;;;6.82;1.33;;;14.10;99.90;;;;;;5108714;28;20134;-85
2022/09/14 01:50:30;;;;;;;3.25;1.13;;;14.00;99.90;;;;;;5109566;28;20030;-83
2022/09/14 01:53:16;;;;;;;2.33;1.42;;;14.00;99.90;;;;;;5107440;28;20400;-85
2022/09/14 01:56:02;;;;;;;2.42;1.17;;;13.90;99.90;;;;;;5108662;28;20039;-85
2022/09/14 01:58:39;;;;;;;2.53;1.35;;;13.90;99.90;;;;;;5093858;28;20119;-83
2022/09/14 02:01:08;;;;;;;4.20;1.30;;;13.90;99.90;;;;;;5108046;28;20031;-83
2022/09/14 02:03:45;;;;;;;6.15;1.42;;;13.90;99.90;;;;;;5108677;28;20023;-83
2022/09/14 02:06:24;;;;;;;3.67;1.17;;;13.90;99.90;;;;;;5108605;28;20027;-82
2022/09/14 02:08:50;;;;;;;2.15;1.15;;;13.80;99.90;;;;;;5107203;28;20447;-83
2022/09/14 02:11:16;;;;;;;5.53;1.67;;;13.80;99.90;;;;;;5111011;28;20027;-84
2022/09/14 02:13:41;;;;;;;;;;;13.80;99.90;;;;;;5114010;28;20028;-83
2022/09/14 02:16:07;;;;;;;7.28;1.42;;;13.80;99.90;;;;;;5112384;28;19911;-82
2022/09/14 02:18:33;;;;;;;;;;;13.80;99.90;;;;;;5113149;28;20133;-83
2022/09/14 02:21:09;;;;;;;3.97;1.38;;;13.80;99.90;;;;;;5112160;28;19910;-82
2022/09/14 02:23:35;;;;;;;3.63;1.23;;;13.80;99.90;;;;;;5112244;28;20070;-83
2022/09/14 02:26:00;;;;;;;;;;;13.80;99.90;;;;;;5113669;28;20604;-82
2022/09/14 02:28:26;;;;;;;6.18;1.55;;;13.80;99.90;;;;;;5111907;28;19904;-83
2022/09/14 02:31:00;;;;;;;;;;;13.70;99.90;;;;;;5112425;28;20028;-83
2022/09/14 02:33:57;;;;;;;3.08;1.27;;;13.70;99.90;;;;;;5112175;28;19910;-83
2022/09/14 02:36:35;;;;;;;4.77;1.60;;;13.70;99.90;;;;;;5114888;28;20035;-84
2022/09/14 02:39:08;;;;;;;4.55;1.10;;;13.70;99.90;;;;;;5117443;28;20166;-84
2022/09/14 02:41:47;;;;;;;3.10;1.17;;;13.70;99.90;;;;;;5110374;28;20035;-84
2022/09/14 02:44:35;;;;;;;3.15;1.60;;;13.70;99.90;;;;;;5109547;28;20624;-83
2022/09/14 02:47:14;;;;;;;2.75;1.17;;;13.70;99.90;;;;;;5111316;28;20024;-84
2022/09/14 02:50:06;;;;;;;2.13;1.35;;;13.70;99.90;;;;;;5112720;28;20039;-83
2022/09/14 02:53:14;;;;;;;2.40;1.50;;;13.70;99.90;;;;;;5111698;28;20031;-84
2022/09/14 02:55:49;;;;;;;4.25;1.52;;;13.60;99.90;;;;;;5087980;28;20043;-84
2022/09/14 02:58:15;;;;;;;3.20;1.52;;;13.60;99.90;;;;;;5090746;28;20042;-84
2022/09/14 03:00:42;;;;;;;;;;;13.50;99.90;;;;;;5092909;28;20036;-84
2022/09/14 03:03:09;;;;;;;3.45;1.35;;;13.50;99.90;;;;;;5092474;28;19927;-84
2022/09/14 03:05:36;;;;;;;3.58;1.40;;;13.40;99.90;;;;;;5110408;28;20031;-84
2022/09/14 03:08:03;;;;;;;7.05;1.27;;;13.40;99.90;;;;;;5111207;28;20030;-84
2022/09/14 03:10:29;;;;;;;1.67;0.98;;;13.30;99.90;;;;;;5112738;28;20077;-84
2022/09/14 03:12:55;;;;;;;5.38;1.52;;;13.30;99.90;;;;;;5112636;28;20072;-83
2022/09/14 03:15:21;;;;;;;;;;;13.30;99.90;;;;;;5111520;28;20019;-83
2022/09/14 03:17:48;;;;;;;4.82;2.25;;;13.30;99.90;;;;;;5111575;28;19999;-84
2022/09/14 03:20:22;;;;;;;5.10;1.58;;;13.20;99.90;;;;;;5103613;28;20052;-83
2022/09/14 03:22:48;;;;;;;1.90;1.27;;;13.20;99.90;;;;;;5106352;28;20077;-83
2022/09/14 03:25:14;;;;;;;5.25;1.65;;;13.20;99.90;;;;;;5110653;28;20028;-84
2022/09/14 03:27:40;;;;;;;3.28;1.30;;;13.20;99.90;;;;;;5110567;28;20076;-85
2022/09/14 03:30:06;;;;;;;;;;;13.20;99.90;;;;;;5111508;28;20030;-83
2022/09/14 03:32:32;;;;;;;2.72;1.25;;;13.20;99.90;;;;;;5102556;28;20467;-83
2022/09/14 03:34:58;;;;;;;;;;;13.20;99.90;;;;;;5090975;28;20256;-84
2022/09/14 03:37:24;;;;;;;5.82;1.95;;;13.20;99.90;;;;;;5089981;28;19916;-84
2022/09/14 03:39:50;;;;;;;;;;;13.10;99.90;;;;;;5094338;28;20008;-84
2022/09/14 03:42:15;;;;;;;4.82;1.75;;;13.10;99.90;;;;;;5110503;28;20368;-81
2022/09/14 03:44:41;;;;;;;;;;;13.10;99.90;;;;;;5111290;28;20123;-83
2022/09/14 03:47:07;;;;;;;3.42;1.63;;;13.10;99.90;;;;;;5110994;28;19904;-84
2022/09/14 03:49:33;;;;;;;7.10;1.42;;;13.10;99.90;;;;;;5091981;28;20042;-84
2022/09/14 03:51:59;;;;;;;;;;;13.20;99.90;;;;;;5090513;28;20493;-84
2022/09/14 03:54:25;;;;;;;2.85;1.60;;;13.30;99.90;;;;;;5090181;28;20292;-82
2022/09/14 03:56:51;;;;;;;;;;;13.30;99.90;;;;;;5090936;28;20044;-84
2022/09/14 03:59:17;;;;;;;9.37;1.67;;;13.30;99.90;;;;;;5090023;28;19987;-83
2022/09/14 04:01:43;;;;;;;;;;;13.30;99.90;;;;;;5090761;28;20411;-84
2022/09/14 04:04:08;;;;;;;3.38;1.50;;;13.30;99.90;;;;;;5096863;28;19908;-84
2022/09/14 04:06:34;;;;;;;;;;;13.30;99.90;;;;;;5110743;28;20132;-84
2022/09/14 04:08:59;;;;;;;5.93;1.85;;;13.30;99.90;;;;;;5112757;28;19980;-85
2022/09/14 04:11:27;;;;;;;5.32;2.13;;;13.40;99.90;;;;;;5108576;28;20034;-84
2022/09/14 04:13:53;;;;;;;3.70;1.50;;;13.40;99.90;;;;;;5089761;28;20028;-83
2022/09/14 04:16:21;;;;;;;3.25;1.23;;;13.50;99.90;;;;;;5089120;28;20131;-83
2022/09/14 04:18:47;;;;;;;3.58;1.63;;;13.60;99.90;;;;;;5089078;28;20077;-86
2022/09/14 04:21:19;;;;;;;3.03;1.63;;;13.70;99.90;;;;;;5105438;28;20054;-83
2022/09/14 04:23:45;;;;;;;4.20;1.88;;;13.70;99.90;;;;;;5109881;28;20545;-84
2022/09/14 04:26:13;;;;;;;3.53;1.40;;;13.70;99.90;;;;;;5110010;28;20028;-83
2022/09/14 04:28:39;;;;;;;6.78;1.35;;;13.80;99.90;;;;;;5109504;28;20040;-84
2022/09/14 04:31:05;;;;;;;5.95;1.35;;;13.80;99.90;;;;;;5095649;28;20024;-84
2022/09/14 04:33:34;;;;;;;2.83;1.30;;;13.90;99.90;;;;;;5104329;28;20051;-86
2022/09/14 04:36:03;;;;;;;3.72;1.73;;;14.00;99.90;;;;;;5109295;28;20022;-85
2022/09/14 04:38:30;;;;;;;7.38;2.03;;;14.00;99.90;;;;;;5109791;28;20470;-85
2022/09/14 04:40:57;;;;;;;3.50;1.73;;;14.10;99.90;;;;;;5109911;28;20030;-84
2022/09/14 04:43:24;;;;;;;8.07;1.20;;;14.20;99.90;;;;;;5094096;28;20031;-86
2022/09/14 04:45:50;;;;;;;5.85;2.20;;;14.30;99.90;;;;;;5089462;28;20035;-85
2022/09/14 04:48:16;;;;;;;11.75;2.10;;;14.30;99.90;;;;;;5087691;28;20138;-85
2022/09/14 04:50:42;;;;;;;;;;;14.50;99.90;;;;;;5088753;28;20135;-86
2022/09/14 04:53:08;;;;;;;2.10;1.30;;;14.50;99.90;;;;;;5089244;28;20421;-84
2022/09/14 04:55:34;;;;;;;5.85;1.95;;;14.70;99.90;;;;;;5088596;28;20270;-85
2022/09/14 04:58:00;;;;;;;;;;;14.80;99.90;;;;;;5092241;28;20415;-84
2022/09/14 05:00:26;;;;;;;4.88;1.75;;;14.80;99.90;;;;;;5109312;28;19912;-85
2022/09/14 05:02:51;;;;;;;5.38;1.50;;;14.80;99.90;;;;;;5109734;28;20027;-85
2022/09/14 05:05:17;;;;;;;3.47;1.50;;;14.90;99.90;;;;;;5110772;28;20106;-85
2022/09/14 05:07:43;;;;;;;4.25;1.20;;;14.90;99.90;;;;;;5090601;28;20056;-85
2022/09/14 05:10:08;;;;;;;7.65;1.70;;;15.00;99.90;;;;;;5088638;28;20116;-84
2022/09/14 05:12:34;;;;;;;6.22;1.90;;;15.00;99.90;;;;;;5089592;28;20035;-85
2022/09/14 05:14:59;;;;;;;;;;;15.00;99.90;;;;;;5101963;28;20020;-83
2022/09/14 05:17:25;;;;;;;5.78;1.45;;;15.10;99.90;;;;;;5110414;28;20168;-84
2022/09/14 05:19:51;;;;;;;;;;;15.10;99.90;;;;;;5098482;28;20028;-84
2022/09/14 05:22:16;;;;;;;5.78;1.75;;;15.20;99.90;;;;;;5088672;28;19908;-85
2022/09/14 05:24:42;;;;;;;;;;;15.30;99.90;;;;;;5088559;28;20043;-84
2022/09/14 05:27:07;;;;;;;4.72;1.92;;;15.30;99.90;;;;;;5088335;28;19961;-84
2022/09/14 05:29:33;;;;;;;6.85;1.83;;;15.40;99.90;;;;;;5086088;28;20119;-86
2022/09/14 05:31:59;;;;;;;4.82;1.70;;;15.50;99.90;;;;;;5086850;28;20039;-85
2022/09/14 05:34:25;;;;;;;6.10;1.70;;;15.70;99.90;;;;;;5088038;28;20024;-85
2022/09/14 05:36:50;;;;;;;3.88;1.48;;;15.80;99.90;;;;;;5088419;28;20264;-85
2022/09/14 05:39:16;;;;;;;4.97;1.70;;;15.90;99.90;;;;;;5088503;28;20709;-85
2022/09/14 05:41:41;;;;;;;6.97;1.65;;;16.00;99.90;;;;;;5089142;28;20040;-84
2022/09/14 05:44:07;;;;;;;10.80;1.67;;;16.20;99.90;;;;;;5088474;28;20031;-85
2022/09/14 05:46:33;;;;;;;8.93;1.63;;;16.30;99.90;;;;;;5088317;28;20027;-85
2022/09/14 05:48:59;;;;;;;;;;;16.50;99.90;;;;;;5088879;28;20501;-85
2022/09/14 05:51:26;;;;;;;9.13;1.48;;;16.60;99.90;;;;;;5088121;28;20287;-84
2022/09/14 05:53:54;;;;;;;6.78;2.13;;;16.80;99.90;;;;;;5088226;28;20461;-85
2022/09/14 05:56:21;;;;;;;10.30;2.00;;;16.90;99.90;;;;;;5088362;28;20492;-86
2022/09/14 05:58:48;;;;;;;4.35;1.90;;;17.10;99.90;;;;;;5088632;28;20032;-85
2022/09/14 06:01:22;;;;;;;4.63;1.30;;;17.20;99.90;;;;;;5088551;28;20156;-86
2022/09/14 06:03:49;;;;;;;3.58;1.40;;;17.40;99.90;;;;;;5087475;28;20119;-87
2022/09/14 06:06:18;;;;;;;6.80;1.35;;;17.50;99.90;;;;;;5088527;28;20061;-85
2022/09/14 06:08:44;;;;;;;4.95;1.20;;;17.70;99.90;;;;;;5088022;28;20135;-85
2022/09/14 06:11:16;;;;;;;7.70;1.42;;;17.80;99.90;;;;;;5087812;28;20032;-83
2022/09/14 06:13:42;;;;;;;13.57;1.92;;;18.00;99.90;;;;;;5088272;28;20515;-85
2022/09/14 06:16:11;;;;;;;3.88;1.40;;;18.20;99.90;;;;;;5088381;28;20031;-85
2022/09/14 06:18:38;;;;;;;7.65;1.20;;;18.50;99.90;;;;;;5088188;28;20392;-85
2022/09/14 06:21:04;;;;;;;5.95;1.23;;;18.90;99.90;;;;;;5089132;28;20024;-84
2022/09/14 06:23:31;;;;;;;4.13;1.65;;;19.40;99.90;;;;;;5105083;28;20076;-84
2022/09/14 06:25:59;;;;;;;4.00;1.48;;;19.80;99.90;;;;;;5107039;28;20027;-84
2022/09/14 06:28:27;;;;;;;4.90;1.70;;;19.90;99.90;;;;;;5107665;28;20043;-84
2022/09/14 06:30:52;;;;;;;7.65;1.10;;;19.80;99.90;;;;;;5107945;28;20028;-83
2022/09/14 06:33:18;;;;;;;6.35;1.42;;;19.60;99.90;;;;;;5109119;28;20389;-84
2022/09/14 06:36:26;;;;;;;5.53;1.10;;;19.50;99.90;;;;;;5108772;28;20127;-84
2022/09/14 06:38:52;;;;;;;8.55;1.23;;;19.20;99.90;;;;;;5103056;28;20036;-83
2022/09/14 06:41:21;;;;;;;1.60;0.75;;;18.90;99.90;;;;;;5087803;28;20373;-83
2022/09/14 06:43:47;;;;;;;6.50;1.25;;;18.80;99.90;;;;;;5087998;28;20073;-83
2022/09/14 06:46:19;;;;;;;4.97;1.45;;;18.70;99.90;;;;;;5087731;28;20020;-83
2022/09/14 06:48:48;;;;;;;5.90;1.35;;;18.60;99.90;;;;;;5088394;28;20091;-84
2022/09/14 06:51:17;;;;;;;3.75;1.27;;;18.50;99.90;;;;;;5088063;28;20020;-83
2022/09/14 06:53:44;;;;;;;7.35;2.13;;;18.40;99.90;;;;;;5087735;28;20032;-84
2022/09/14 06:56:10;;;;;;;7.18;2.10;;;18.40;99.90;;;;;;5108076;28;20047;-84
2022/09/14 06:58:36;;;;;;;4.43;1.30;;;18.40;99.90;;;;;;5111977;28;20503;-84
2022/09/14 07:01:07;;;;;;;6.47;1.70;;;18.30;99.90;;;;;;5112401;28;20028;-83
2022/09/14 07:03:37;;;;;;;5.78;1.17;;;18.30;99.90;;;;;;5099048;28;20418;-83
2022/09/14 07:06:23;;;;;;;10.43;1.15;;;18.30;99.90;;;;;;5091690;28;20024;-83
2022/09/14 07:08:50;;;;;;;3.80;1.48;;;18.30;99.90;;;;;;5091626;28;20135;-83
2022/09/14 07:11:18;;;;;;;7.63;1.55;;;18.30;99.90;;;;;;5091259;28;20119;-83
2022/09/14 07:13:45;;;;;;;5.63;1.25;;;18.20;99.90;;;;;;5090908;28;20043;-82
2022/09/14 07:16:12;;;;;;;2.53;1.27;;;18.00;99.90;;;;;;5091313;28;20020;-83
2022/09/14 07:18:38;;;;;;;4.45;1.05;;;18.00;99.90;;;;;;5091879;28;20031;-83
2022/09/14 07:21:09;;;;;;;6.18;1.02;;;17.90;99.90;;;;;;5090971;28;20506;-84
2022/09/14 07:23:37;;;;;;;5.40;1.13;;;18.00;99.90;;;;;;5091748;28;20035;-84
2022/09/14 07:26:13;;;;;;;7.28;1.20;;;18.10;99.90;;;;;;5091613;28;20059;-83
2022/09/14 07:28:39;;;;;;;2.55;1.00;;;18.20;99.90;;;;;;5091512;28;20031;-84
2022/09/14 07:31:20;;;;;;;13.25;1.83;;;18.40;99.90;;;;;;5090926;28;20385;-85
2022/09/14 07:33:45;;;;;;;6.20;3.33;;;18.50;99.90;;;;;;5091049;28;20032;-84
2022/09/14 07:36:12;;;;;;;13.63;4.82;;;18.70;99.90;;;;;;5090547;28;20020;-84
2022/09/14 07:38:38;;;;;;;27.92;7.15;;;19.00;99.90;;;;;;5090748;28;20039;-85
2022/09/14 07:41:04;;;;;;;33.38;8.40;;;19.20;99.90;;;;;;5090999;28;20116;-84
2022/09/14 07:43:30;;;;;;;34.55;7.97;;;19.40;99.90;;;;;;5090167;28;20094;-85
2022/09/14 07:45:56;;;;;;;16.15;4.35;;;19.40;99.90;;;;;;5092376;28;20024;-85
2022/09/14 07:48:22;;;;;;;8.27;2.25;;;19.20;99.90;;;;;;5090897;28;20047;-83
2022/09/14 07:50:57;;;;;;;9.43;2.00;;;19.10;99.90;;;;;;5097588;28;20112;-84
2022/09/14 07:53:23;;;;;;;5.33;1.63;;;19.00;99.90;;;;;;5112029;28;20024;-85
2022/09/14 07:55:49;;;;;;;4.35;1.88;;;18.90;99.90;;;;;;5111226;28;20047;-85
2022/09/14 07:58:14;;;;;;;5.93;1.70;;;18.80;99.90;;;;;;5108958;28;20028;-85
2022/09/14 08:00:40;;;;;;;7.50;1.75;;;18.80;99.90;;;;;;5091798;28;20396;-84
2022/09/14 08:03:06;;;;;;;4.50;1.40;;;18.80;99.90;;;;;;5090005;28;20396;-84
2022/09/14 08:05:32;;;;;;;13.43;2.28;;;18.80;99.90;;;;;;5087546;28;20176;-85
2022/09/14 08:07:58;;;;;;;13.57;2.95;;;18.80;99.90;;;;;;5089636;28;20032;-84
2022/09/14 08:10:25;;;;;;;10.30;2.38;;;18.80;99.90;;;;;;5090675;28;20028;-84
2022/09/14 08:12:54;;;;;;;10.65;1.95;;;18.80;99.90;;;;;;5090482;28;20028;-84
2022/09/14 08:15:21;;;;;;;7.90;2.50;;;18.80;99.90;;;;;;5099254;28;20031;-84
2022/09/14 08:17:48;;;;;;;7.32;1.75;;;18.90;99.90;;;;;;5106027;28;20023;-84
2022/09/14 08:20:15;;;;;;;4.13;1.80;;;18.80;99.90;;;;;;5090843;28;20055;-84
2022/09/14 08:22:44;;;;;;;9.73;2.00;;;18.80;99.90;;;;;;5090088;28;20509;-83
2022/09/14 08:25:11;;;;;;;12.25;1.85;;;18.80;99.90;;;;;;5090216;28;20028;-84
2022/09/14 08:27:37;;;;;;;6.95;1.73;;;18.70;99.90;;;;;;5090440;28;20039;-83
2022/09/14 08:30:04;;;;;;;15.88;4.47;;;18.80;99.90;;;;;;5089810;28;20028;-84
2022/09/14 08:32:30;;;;;;;13.23;4.72;;;18.80;99.90;;;;;;5090204;28;20028;-85
2022/09/14 08:34:55;;;;;;;7.18;2.60;;;18.80;99.90;;;;;;5089600;28;20031;-86
2022/09/14 08:37:21;;;;;;;5.82;1.75;;;18.90;99.90;;;;;;5089460;28;20484;-85
2022/09/14 08:39:47;;;;;;;8.50;1.88;;;18.80;99.90;;;;;;5103576;28;20187;-85
2022/09/14 08:42:18;;;;;;;6.30;2.17;;;18.80;99.90;;;;;;5109508;28;20028;-85
2022/09/14 08:44:50;;;;;;;14.52;2.00;;;18.70;99.90;;;;;;5110005;28;20016;-84
2022/09/14 08:47:22;;;;;;;15.18;2.03;;;18.70;99.90;;;;;;5096769;28;20046;-85
2022/09/14 08:50:02;;;;;;;14.38;2.45;;;18.60;99.90;;;;;;5089171;28;20089;-84
2022/09/14 08:52:44;;;;;;;11.88;2.20;;;18.60;99.90;;;;;;5089046;28;20020;-84
2022/09/14 08:55:46;;;;;;;14.90;2.70;;;18.70;99.90;;;;;;5089929;28;20036;-85
2022/09/14 08:58:40;;;;;;;15.32;2.60;;;18.90;99.90;;;;;;5089230;28;20040;-84
2022/09/14 09:01:27;;;;;;;8.45;1.77;;;19.20;99.90;;;;;;5089431;28;20819;-84
2022/09/14 09:04:28;;;;;;;7.88;1.92;;;19.50;99.90;;;;;;5058903;28;20032;-83
2022/09/14 09:07:16;;;;;;;11.35;2.00;;;19.60;99.90;;;;;;5008303;28;20446;-84
2022/09/14 09:09:51;;;;;;;9.70;2.50;;;19.80;99.90;;;;;;5100561;28;20035;-84
2022/09/14 09:12:18;;;;;;;5.00;1.90;;;20.00;99.90;;;;;;5105845;28;20481;-85
2022/09/14 09:14:55;;;;;;;7.65;2.38;;;20.00;99.90;;;;;;5089983;28;20160;-84
2022/09/14 09:17:33;;;;;;;4.82;1.73;;;19.90;99.90;;;;;;5089416;28;20061;-85
2022/09/14 09:20:06;;;;;;;9.70;1.90;;;19.70;99.90;;;;;;5107465;28;20026;-85
2022/09/14 09:22:40;;;;;;;5.28;1.60;;;19.40;99.90;;;;;;5109061;28;20027;-84
2022/09/14 09:25:22;;;;;;;7.72;1.75;;;19.20;99.90;;;;;;5109133;28;20020;-85
2022/09/14 09:27:48;;;;;;;8.05;1.70;;;19.10;99.90;;;;;;5108051;28;20077;-84
2022/09/14 09:30:15;;;;;;;4.80;1.98;;;19.10;99.90;;;;;;5108720;28;20030;-85
2022/09/14 09:32:41;;;;;;;9.60;3.60;;;19.10;99.90;;;;;;5108153;28;20024;-84
2022/09/14 09:35:13;;;;;;;14.05;3.80;;;19.10;99.90;;;;;;5099262;28;20024;-85
2022/09/14 09:37:39;;;;;;;13.38;4.93;;;19.20;99.90;;;;;;5088282;28;20038;-84
2022/09/14 09:40:15;;;;;;;10.15;2.10;;;19.30;99.90;;;;;;5086152;28;20427;-84
2022/09/14 09:43:04;;;;;;;6.95;1.90;;;19.30;99.90;;;;;;5086977;28;20031;-84
2022/09/14 09:45:56;;;;;;;13.65;2.22;;;19.50;99.90;;;;;;5087880;28;20024;-85
2022/09/14 09:48:28;;;;;;;9.02;2.75;;;19.60;99.90;;;;;;5088205;28;20036;-85
2022/09/14 09:51:14;;;;;;;5.82;1.98;;;19.90;99.90;;;;;;5087863;28;20027;-85
2022/09/14 09:54:11;;;;;;;10.73;1.60;;;20.20;99.90;;;;;;5088190;28;20032;-85
2022/09/14 09:56:48;;;;;;;13.73;2.35;;;20.50;99.90;;;;;;5079547;28;20061;-84
2022/09/14 09:59:39;;;;;;;9.00;1.98;;;20.60;99.90;;;;;;5088260;28;20047;-85
2022/09/14 10:02:28;;;;;;;6.70;2.35;;;20.50;99.90;;;;;;5089367;28;20028;-85
2022/09/14 10:05:04;;;;;;;15.23;2.22;;;20.50;99.90;;;;;;5088356;28;20032;-84
2022/09/14 10:07:55;;;;;;;8.38;1.85;;;20.60;99.90;;;;;;5087538;28;20032;-85
2022/09/14 10:10:42;;;;;;;6.05;1.60;;;20.60;99.90;;;;;;5082729;28;20032;-85
2022/09/14 10:13:16;;;;;;;9.27;2.60;;;20.30;99.90;;;;;;5087655;28;20016;-85
2022/09/14 10:15:42;;;;;;;7.53;1.85;;;20.10;99.90;;;;;;5088589;28;20085;-84
2022/09/14 10:18:10;;;;;;;13.02;2.17;;;19.70;99.90;;;;;;5089220;28;20028;-83
2022/09/14 10:20:39;;;;;;;8.07;2.10;;;19.50;99.90;;;;;;5106638;28;20058;-82
2022/09/14 10:23:37;;;;;;;12.73;1.83;;;19.40;99.90;;;;;;5108183;28;20474;-83
2022/09/14 10:26:09;;;;;;;9.85;2.63;;;19.20;99.90;;;;;;5094814;28;20568;-83
2022/09/14 10:28:35;;;;;;;10.10;2.53;;;19.20;99.90;;;;;;5106797;28;20406;-83
2022/09/14 10:31:15;;;;;;;11.07;2.70;;;19.20;99.90;;;;;;5109271;28;20035;-84
2022/09/14 10:33:41;;;;;;;11.10;3.13;;;19.30;99.90;;;;;;5110674;28;20053;-84
2022/09/14 10:36:40;;;;;;;6.90;2.25;;;19.40;99.90;;;;;;5111162;28;20312;-83
2022/09/14 10:39:26;;;;;;;11.80;3.33;;;19.50;99.90;;;;;;5111485;28;20131;-84
2022/09/14 10:42:32;;;;;;;13.18;2.92;;;19.60;99.90;;;;;;5111267;28;20257;-83
2022/09/14 10:45:01;;;;;;;6.30;1.98;;;19.40;99.90;;;;;;5111074;28;20092;-83
2022/09/14 10:47:47;;;;;;;12.27;3.17;;;19.40;99.90;;;;;;5110374;28;20411;-82
2022/09/14 10:50:27;;;;;;;5.28;2.72;;;19.30;99.90;;;;;;5110403;28;20047;-84
2022/09/14 10:52:53;;;;;;;8.70;2.65;;;19.30;99.90;;;;;;5110443;28;20032;-83
2022/09/14 10:55:23;;;;;;;9.27;3.15;;;19.20;99.90;;;;;;5110740;28;20111;-83
2022/09/14 10:57:59;;;;;;;11.55;3.28;;;19.20;99.90;;;;;;5110964;28;20050;-83
2022/09/14 11:00:29;;;;;;;13.52;2.45;;;19.20;99.90;;;;;;5090223;28;20116;-82
2022/09/14 11:03:23;;;;;;;9.00;2.92;;;19.20;99.90;;;;;;5088080;28;20032;-84
2022/09/14 11:05:48;;;;;;;12.50;2.17;;;19.30;99.90;;;;;;5088646;28;20020;-84
2022/09/14 11:08:38;;;;;;;8.35;2.33;;;19.20;99.90;;;;;;5089914;28;20040;-84
2022/09/14 11:11:12;;;;;;;11.80;2.42;;;19.30;99.90;;;;;;5090930;28;20483;-84
2022/09/14 11:13:59;;;;;;;6.53;2.70;;;19.30;99.90;;;;;;5091773;28;20085;-85
2022/09/14 11:16:24;;;;;;;;;;;19.30;99.90;;;;;;5090706;28;20051;-84
2022/09/14 11:18:59;;;;;;;10.80;3.03;;;19.30;99.90;;;;;;5088840;28;20004;-85
2022/09/14 11:21:58;;;;;;;10.55;2.42;;;19.20;99.90;;;;;;5089429;28;20496;-84
2022/09/14 11:24:27;;;;;;;12.13;3.00;;;19.30;99.90;;;;;;5090100;28;20024;-83
2022/09/14 11:27:16;;;;;;;7.70;2.35;;;19.30;99.90;;;;;;5089815;28;20027;-83
2022/09/14 11:29:49;;;;;;;8.52;2.35;;;19.20;99.90;;;;;;5091363;28;20043;-84
2022/09/14 11:32:18;;;;;;;7.57;2.00;;;19.30;99.90;;;;;;5089898;28;20118;-84
2022/09/14 11:34:56;;;;;;;9.75;2.00;;;19.30;99.90;;;;;;5089813;28;20112;-84
2022/09/14 11:37:37;;;;;;;6.30;2.70;;;19.50;99.90;;;;;;5089931;28;20126;-85
2022/09/14 11:40:22;;;;;;;4.38;2.35;;;19.60;99.90;;;;;;5107067;28;20299;-85
2022/09/14 11:42:51;;;;;;;11.35;2.17;;;19.60;99.90;;;;;;5112083;28;20012;-84
2022/09/14 11:45:26;;;;;;;4.63;2.55;;;19.70;99.90;;;;;;5109994;28;20518;-84
2022/09/14 11:48:04;;;;;;;11.75;2.10;;;19.70;99.90;;;;;;5095930;28;20024;-82
2022/09/14 11:50:31;;;;;;;4.65;1.77;;;19.80;99.90;;;;;;5090913;28;20047;-85
2022/09/14 11:53:13;;;;;;;5.95;2.28;;;19.90;99.90;;;;;;5089480;28;20298;-84
2022/09/14 11:55:48;;;;;;;7.47;2.55;;;20.00;99.90;;;;;;5102322;28;20106;-84
2022/09/14 11:58:26;;;;;;;4.82;2.63;;;20.00;99.90;;;;;;5108751;28;20498;-83
2022/09/14 12:01:00;;;;;;;4.50;2.20;;;20.00;99.90;;;;;;5109730;28;20605;-84
2022/09/14 12:04:03;;;;;;;3.60;2.00;;;20.20;99.90;;;;;;5109415;28;20526;-84
2022/09/14 12:06:29;;;;;;;8.48;2.05;;;20.40;99.90;;;;;;5109937;28;20028;-83
2022/09/14 12:09:20;;;;;;;3.72;2.25;;;20.50;99.90;;;;;;5109641;28;20050;-84
2022/09/14 12:11:52;;;;;;;5.93;2.10;;;20.50;99.90;;;;;;5109364;28;20035;-84
2022/09/14 12:14:30;;;;;;;7.40;1.85;;;20.60;99.90;;;;;;5109996;28;20066;-84
2022/09/14 12:17:25;;;;;;;4.30;2.13;;;20.70;99.90;;;;;;5109647;28;20057;-84
2022/09/14 12:19:54;;;;;;;4.85;1.88;;;20.80;99.90;;;;;;5090548;28;20051;-85
2022/09/14 12:22:29;;;;;;;3.13;1.70;;;20.90;99.90;;;;;;5089259;28;20024;-84
2022/09/14 12:25:16;;;;;;;7.15;2.00;;;21.00;99.90;;;;;;5089112;28;20107;-85
2022/09/14 12:27:44;;;;;;;7.95;1.83;;;21.10;99.90;;;;;;5103268;28;20032;-84
2022/09/14 12:30:34;;;;;;;2.42;1.45;;;21.10;99.90;;;;;;5108983;28;20023;-84
2022/09/14 12:33:01;;;;;;;13.93;3.65;;;21.10;99.90;;;;;;5108454;28;20015;-82
2022/09/14 12:35:33;;;;;;;4.32;1.67;;;21.30;99.90;;;;;;5109100;28;20027;-83
2022/09/14 12:38:18;;;;;;;5.35;1.60;;;21.40;99.90;;;;;;5109243;28;20032;-84
2022/09/14 12:40:43;;;;;;;6.32;1.60;;;21.40;99.90;;;;;;5109860;28;20278;-84
2022/09/14 12:43:34;;;;;;;8.85;1.85;;;21.50;99.90;;;;;;5110656;28;20027;-85
2022/09/14 12:45:59;;;;;;;3.95;2.55;;;21.70;99.90;;;;;;5108796;28;20031;-85
2022/09/14 12:48:47;;;;;;;4.70;1.67;;;21.70;99.90;;;;;;5109298;28;20031;-84
2022/09/14 12:54:28;;;;;;;6.53;1.33;;;21.80;99.90;;;;;;5109994;28;20067;-83
2022/09/14 12:57:20;;;;;;;6.00;2.25;;;21.90;99.90;;;;;;5108431;28;20047;-85
2022/09/14 13:00:04;;;;;;;6.03;1.90;;;22.10;99.90;;;;;;5109551;28;20027;-85
2022/09/14 13:03:07;;;;;;;7.30;1.95;;;22.20;99.90;;;;;;5108835;28;20024;-85
2022/09/14 13:05:33;;;;;;;4.15;2.03;;;22.30;99.90;;;;;;5108240;28;20023;-83
2022/09/14 13:08:00;;;;;;;5.43;1.80;;;22.30;99.90;;;;;;5108763;27;20046;-83
2022/09/14 13:10:35;;;;;;;8.82;1.52;;;22.40;99.90;;;;;;5108752;28;20028;-85
2022/09/14 13:13:17;;;;;;;4.50;1.98;;;22.40;99.90;;;;;;5109976;28;20104;-84
2022/09/14 13:15:55;;;;;;;4.13;1.70;;;22.40;99.90;;;;;;5110174;28;20027;-84
2022/09/14 13:18:20;;;;;;;5.55;2.38;;;22.50;99.90;;;;;;5105652;28;20035;-85
2022/09/14 13:20:55;;;;;;;6.75;1.88;;;22.60;99.90;;;;;;5089339;28;20016;-85
2022/09/14 13:23:25;;;;;;;4.20;1.75;;;22.70;99.90;;;;;;5088922;28;20020;-85